Airport details for: LGPA (Greece)

Metar

LGPA 111250Z 22007KT 9999 SCT030 17/10 Q1024

General details

ICAO: LGPA
IATA: PAS
Name (city): Paros
Major:
Country: Greece
vACC: Hellenic vACC
Description:

Paros National Airport is an airport in Paros, Greece, in the Cyclades islands region. (IATA: PAS, ICAO: LGPA). The airport is located in the southwestern part of the island, about 10 kilometers from the port of Parikia.

The airport was opened on October 5, 1982 on land made available by Nikolas Panteleou, hence its secondary name "Panteleou Paros Airport". Operation of the airport began as a municipal airport with a dirt runway and a small building covering 80 square meters. The year 1985 saw the construction of a paved runway. The terminal building was a single story building. In 1987 this building was renovated and an additional floor was added, housing the Hellenic Civil Aviation Authority and the MHL (Meteorological Service). In 1989, the airport became a national airport.

Scenery links:
FS9 scenery:
FSX/P3D scenery: Download
XP scenery:
Elevation: 127 ft.
Transition altitude: 4000 ft.
MSA: 2600 ft.
Latitude: 37.010278
Longitude: 25.128056
LGPA Charts
LGPA Notams
LGPA Online stations

Runways

Number Course Length Elevation Lat Lon ILS ILS freq ILS FAC GP
17 170° 2625ft / 800 m 127ft 37.013558 25.127567 - - 3.0°
35 350° 2625ft / 800 m 86ft 37.007219 25.128614 - - 3.0°